^^
Meteo Knjazevac Station Historical Data
Daily Summary for March 15, 2021 Units:  English    Metric   Both
Daily Weekly Monthly Yearly Custom
  High: Low: Average:
Temperature: 51.1 °F 36.7 °F 43.8 °F
Dew Point: 45.7 °F 35.6 °F 41.6 °F
Humidity: 99% 80% 92%
Wind Speed: 10mph 0mph 3.8mph
Wind Gust: 18mph - -
Wind- - SE
Pressure: 30.39 in 30.28 in -
Precipitation: 0.00 in    
Historical Graphs
 
 
Tabular Data for March 15, 2021
Time Temperature Dew Point Pressure Wind Wind Speed Wind Gust Humidity Rainfall Rate (Hourly) solar Conditions
00:00 42.4 °F 41.1 °F 30.28 in North 1 mph 4 mph 95% 0.00 in 0 W/m2
00:10 42.4 °F 41.1 °F 30.28 in North 1 mph 4 mph 95% 0.00 in 0 W/m2
00:20 42.4 °F 41.1 °F 30.28 in North 1 mph 4 mph 95% 0.00 in 0 W/m2
00:30 42.3 °F 40.9 °F 30.28 in North 2 mph 5 mph 95% 0.00 in 0 W/m2
00:40 42.3 °F 41.2 °F 30.28 in North 2 mph 5 mph 96% 0.00 in 0 W/m2
00:50 42.3 °F 41.2 °F 30.29 in North 2 mph 5 mph 96% 0.00 in 0 W/m2
01:00 42.3 °F 41.2 °F 30.29 in North 2 mph 7 mph 96% 0.00 in 0 W/m2
01:10 42.3 °F 41.2 °F 30.29 in North 2 mph 6 mph 96% 0.00 in 0 W/m2
01:20 42.1 °F 41 °F 30.29 in North 1 mph 7 mph 96% 0.00 in 0 W/m2
01:30 42.1 °F 41 °F 30.29 in Calm   4 mph 96% 0.00 in 0 W/m2
01:40 42.1 °F 41 °F 30.29 in North 3 mph 6 mph 96% 0.00 in 0 W/m2
01:50 41.9 °F 40.8 °F 30.29 in North 2 mph 6 mph 96% 0.00 in 0 W/m2
02:00 41.9 °F 40.8 °F 30.29 in NNE 2 mph 7 mph 96% 0.00 in 0 W/m2
02:10 41.9 °F 40.8 °F 30.30 in North 5 mph 8 mph 96% 0.00 in 0 W/m2
02:20 41.9 °F 41.4 °F 30.29 in NNE 2 mph 8 mph 98% 0.00 in 0 W/m2
02:30 41.9 °F 41.4 °F 30.29 in North 3 mph 6 mph 98% 0.00 in 0 W/m2
02:40 41.9 °F 41.4 °F 30.29 in North 2 mph 6 mph 98% 0.00 in 0 W/m2
02:50 41.9 °F 41.4 °F 30.29 in North 2 mph 3 mph 98% 0.00 in 0 W/m2
03:00 41.9 °F 41.4 °F 30.29 in North 2 mph 5 mph 98% 0.00 in 0 W/m2
03:10 41.9 °F 41.4 °F 30.29 in North 1 mph 4 mph 98% 0.00 in 0 W/m2
03:20 41.9 °F 41.4 °F 30.29 in NNE 3 mph 6 mph 98% 0.00 in 0 W/m2
03:30 41.9 °F 41.4 °F 30.29 in North 3 mph 6 mph 98% 0.00 in 0 W/m2
03:40 41.9 °F 41.4 °F 30.29 in North 3 mph 5 mph 98% 0.00 in 0 W/m2
03:50 41.9 °F 41.4 °F 30.29 in NNE 2 mph 6 mph 98% 0.00 in 0 W/m2
04:00 41.9 °F 41.4 °F 30.28 in NNE 2 mph 5 mph 98% 0.00 in 0 W/m2
04:10 41.9 °F 41.4 °F 30.28 in NNE 1 mph 4 mph 98% 0.00 in 0 W/m2
04:20 41.9 °F 41.4 °F 30.28 in NNE 2 mph 5 mph 98% 0.00 in 0 W/m2
04:30 41.8 °F 41.3 °F 30.29 in North 1 mph 5 mph 98% 0.00 in 0 W/m2
04:40 41.7 °F 41.2 °F 30.29 in NNE 2 mph 5 mph 98% 0.00 in 0 W/m2
04:50 41.7 °F 41.2 °F 30.29 in NNE 2 mph 4 mph 98% 0.00 in 0 W/m2
05:00 41.7 °F 41.2 °F 30.29 in NNE 2 mph 4 mph 98% 0.00 in 0 W/m2
05:10 41.7 °F 41.2 °F 30.29 in North 1 mph 4 mph 98% 0.00 in 0 W/m2
05:20 41.9 °F 41.4 °F 30.29 in NNE 2 mph 6 mph 98% 0.00 in 0 W/m2
05:30 41.9 °F 41.4 °F 30.29 in North 2 mph 5 mph 98% 0.00 in 0 W/m2
05:40 41.9 °F 41.4 °F 30.29 in North 1 mph 4 mph 98% 0.00 in 0 W/m2
05:50 41.9 °F 41.4 °F 30.29 in North 1 mph 6 mph 98% 0.00 in 0 W/m2
06:00 41.9 °F 41.4 °F 30.30 in North 1 mph 6 mph 98% 0.00 in 0 W/m2
06:10 41.9 °F 41.4 °F 30.29 in North 2 mph 7 mph 98% 0.00 in 0 W/m2
06:20 41.9 °F 41.4 °F 30.30 in North 1 mph 5 mph 98% 0.00 in 0 W/m2
06:30 41.9 °F 41.4 °F 30.30 in NNE 1 mph 5 mph 98% 0.00 in 1 W/m2
06:40 41.9 °F 41.4 °F 30.30 in NNE 1 mph 6 mph 98% 0.00 in 2 W/m2
06:50 41.9 °F 41.6 °F 30.30 in North 3 mph 6 mph 99% 0.00 in 4 W/m2
07:00 41.9 °F 41.6 °F 30.31 in North 2 mph 7 mph 99% 0.00 in 6 W/m2
07:10 41.9 °F 41.6 °F 30.31 in North 3 mph 6 mph 99% 0.00 in 10 W/m2
07:20 41.9 °F 41.6 °F 30.31 in North 2 mph 7 mph 99% 0.00 in 17 W/m2
07:30 42.1 °F 41.8 °F 30.31 in Calm   5 mph 99% 0.00 in 19 W/m2
07:40 42.3 °F 42 °F 30.31 in North 1 mph 7 mph 99% 0.00 in 27 W/m2
07:50 42.3 °F 42 °F 30.32 in NNE 3 mph 8 mph 99% 0.00 in 25 W/m2
08:00 42.4 °F 42.2 °F 30.32 in North 1 mph 7 mph 99% 0.00 in 43 W/m2
08:10 42.6 °F 42.3 °F 30.32 in NNE 2 mph 6 mph 99% 0.00 in 45 W/m2
08:20 42.6 °F 42.4 °F 30.32 in NNE 1 mph 5 mph 99% 0.00 in 48 W/m2
08:30 42.8 °F 42.3 °F 30.32 in NNE 1 mph 5 mph 98% 0.00 in 44 W/m2
08:40 43 °F 42.5 °F 30.32 in WNW 1 mph 6 mph 98% 0.00 in 45 W/m2
08:50 43.2 °F 42.6 °F 30.32 in NE 5 mph 8 mph 98% 0.00 in 43 W/m2
09:00 43 °F 41.9 °F 30.32 in ESE 2 mph 7 mph 96% 0.00 in 49 W/m2
09:10 43 °F 41.9 °F 30.33 in East 2 mph 6 mph 96% 0.00 in 45 W/m2
09:20 43 °F 41.9 °F 30.33 in East 3 mph 7 mph 96% 0.00 in 55 W/m2
09:30 43 °F 41.9 °F 30.33 in ENE 2 mph 9 mph 96% 0.00 in 57 W/m2
09:40 43.2 °F 42.1 °F 30.33 in East 3 mph 6 mph 96% 0.00 in 64 W/m2
09:50 43.2 °F 41.8 °F 30.33 in ESE 2 mph 5 mph 95% 0.00 in 62 W/m2
10:00 43.3 °F 42 °F 30.33 in ENE 1 mph 5 mph 95% 0.00 in 71 W/m2
10:10 43.5 °F 42.2 °F 30.33 in Calm   5 mph 95% 0.00 in 84 W/m2
10:20 43.8 °F 42.5 °F 30.33 in NNE 1 mph 3 mph 95% 0.00 in 92 W/m2
10:30 44.1 °F 42.4 °F 30.33 in Calm   3 mph 94% 0.00 in 112 W/m2
10:40 44.4 °F 42.8 °F 30.32 in NNW 2 mph 6 mph 94% 0.00 in 134 W/m2
10:50 45.1 °F 43.5 °F 30.32 in North 5 mph 8 mph 94% 0.00 in 163 W/m2
11:00 45.7 °F 43.8 °F 30.32 in NW 3 mph 6 mph 93% 0.00 in 155 W/m2
11:10 46.2 °F 43.7 °F 30.31 in NNW 2 mph 9 mph 91% 0.00 in 174 W/m2
11:20 46.7 °F 44.2 °F 30.31 in North 5 mph 12 mph 91% 0.00 in 390 W/m2
11:30 48.2 °F 45.1 °F 30.30 in North 7 mph 13 mph 89% 0.00 in 343 W/m2
11:40 49.3 °F 45.3 °F 30.30 in North 7 mph 13 mph 86% 0.00 in 405 W/m2
11:50 50 °F 45.6 °F 30.31 in North 7 mph 16 mph 85% 0.00 in 366 W/m2
12:00 50.4 °F 45.7 °F 30.30 in North 9 mph 14 mph 84% 0.00 in 354 W/m2
12:10 50.7 °F 45.7 °F 30.30 in North 6 mph 14 mph 83% 0.00 in 366 W/m2
12:20 50.9 °F 45.3 °F 30.31 in North 10 mph 16 mph 81% 0.00 in 327 W/m2
12:30 51.1 °F 45.1 °F 30.31 in North 9 mph 18 mph 80% 0.00 in 281 W/m2
12:40 50.7 °F 45.1 °F 30.31 in North 7 mph 15 mph 81% 0.00 in 363 W/m2
12:50 50.5 °F 44.9 °F 30.31 in North 8 mph 16 mph 81% 0.00 in 276 W/m2
13:00 50.2 °F 44.6 °F 30.31 in North 7 mph 15 mph 81% 0.00 in 225 W/m2
13:10 50 °F 44.4 °F 30.31 in North 6 mph 16 mph 81% 0.00 in 293 W/m2
13:20 50.2 °F 44.6 °F 30.31 in North 7 mph 16 mph 81% 0.00 in 228 W/m2
13:30 49.8 °F 44.2 °F 30.31 in North 8 mph 17 mph 81% 0.00 in 266 W/m2
13:40 49.8 °F 44.2 °F 30.31 in North 6 mph 17 mph 81% 0.00 in 247 W/m2
13:50 49.6 °F 44 °F 30.31 in North 8 mph 17 mph 81% 0.00 in 248 W/m2
14:00 49.8 °F 44.2 °F 30.31 in North 9 mph 15 mph 81% 0.00 in 227 W/m2
14:10 49.6 °F 44 °F 30.31 in North 7 mph 17 mph 81% 0.00 in 207 W/m2
14:20 49.6 °F 44 °F 30.31 in North 8 mph 17 mph 81% 0.00 in 184 W/m2
14:30 49.1 °F 43.5 °F 30.31 in North 7 mph 17 mph 81% 0.00 in 164 W/m2
14:40 48.9 °F 44 °F 30.31 in North 7 mph 16 mph 83% 0.00 in 142 W/m2
14:50 48.6 °F 43.6 °F 30.31 in North 9 mph 18 mph 83% 0.00 in 120 W/m2
15:00 48 °F 43.1 °F 30.31 in North 6 mph 18 mph 83% 0.00 in 94 W/m2
15:10 47.7 °F 43.1 °F 30.31 in North 7 mph 15 mph 84% 0.00 in 77 W/m2
15:20 47.5 °F 42.9 °F 30.31 in North 9 mph 14 mph 84% 0.00 in 57 W/m2
15:30 47.1 °F 42.5 °F 30.31 in North 7 mph 15 mph 84% 0.00 in 38 W/m2
15:40 46.8 °F 42.5 °F 30.32 in North 6 mph 13 mph 85% 0.00 in 20 W/m2
15:50 46.4 °F 42.2 °F 30.32 in North 8 mph 15 mph 85% 0.00 in 5 W/m2
16:00 46 °F 42.1 °F 30.32 in North 8 mph 17 mph 86% 0.00 in 7 W/m2
16:10 45.7 °F 41.8 °F 30.32 in North 7 mph 15 mph 86% 0.00 in 0 W/m2
16:20 45.5 °F 41.6 °F 30.32 in North 8 mph 17 mph 86% 0.00 in 0 W/m2
16:30 45.5 °F 41.6 °F 30.33 in North 7 mph 14 mph 86% 0.00 in 0 W/m2
16:40 45.1 °F 41.2 °F 30.32 in North 8 mph 15 mph 86% 0.00 in 0 W/m2
16:50 45.1 °F 41.8 °F 30.33 in North 7 mph 13 mph 88% 0.00 in 0 W/m2
17:00 45 °F 41.6 °F 30.33 in North 6 mph 16 mph 88% 0.00 in 0 W/m2
17:10 45 °F 41.6 °F 30.33 in North 6 mph 14 mph 88% 0.00 in 0 W/m2
17:20 44.8 °F 41.4 °F 30.34 in North 10 mph 15 mph 88% 0.00 in 0 W/m2
17:30 44.8 °F 41.4 °F 30.34 in North 7 mph 15 mph 88% 0.00 in 0 W/m2
17:40 44.6 °F 41.3 °F 30.34 in North 5 mph 13 mph 88% 0.00 in 0 W/m2
17:50 44.6 °F 41.3 °F 30.34 in North 7 mph 13 mph 88% 0.00 in 0 W/m2
18:00 44.4 °F 41.1 °F 30.34 in North 5 mph 17 mph 88% 0.00 in 0 W/m2
18:10 44.3 °F 41.2 °F 30.34 in North 7 mph 15 mph 89% 0.00 in 0 W/m2
18:20 44.1 °F 41 °F 30.34 in North 7 mph 16 mph 89% 0.00 in 0 W/m2
18:30 44.1 °F 41 °F 30.35 in North 7 mph 14 mph 89% 0.00 in 0 W/m2
18:40 44.1 °F 41.3 °F 30.35 in North 6 mph 16 mph 90% 0.00 in 0 W/m2
18:50 43.9 °F 41.1 °F 30.35 in North 6 mph 12 mph 90% 0.00 in 0 W/m2
19:00 43.9 °F 41.4 °F 30.35 in North 7 mph 12 mph 91% 0.00 in 0 W/m2
19:10 43.9 °F 41.4 °F 30.35 in North 3 mph 14 mph 91% 0.00 in 0 W/m2
19:20 43.9 °F 41.4 °F 30.35 in North 5 mph 11 mph 91% 0.00 in 0 W/m2
19:30 43.9 °F 41.4 °F 30.35 in North 5 mph 12 mph 91% 0.00 in 0 W/m2
19:40 43.9 °F 41.4 °F 30.35 in North 6 mph 13 mph 91% 0.00 in 0 W/m2
19:50 44.1 °F 41.6 °F 30.36 in North 5 mph 14 mph 91% 0.00 in 0 W/m2
20:00 43.9 °F 41.4 °F 30.36 in North 5 mph 13 mph 91% 0.00 in 0 W/m2
20:10 43.9 °F 41.4 °F 30.37 in North 3 mph 10 mph 91% 0.00 in 0 W/m2
20:20 43.9 °F 41.4 °F 30.37 in North 5 mph 12 mph 91% 0.00 in 0 W/m2
20:30 43.9 °F 41.4 °F 30.37 in North 2 mph 12 mph 91% 0.00 in 0 W/m2
20:40 43.9 °F 41.4 °F 30.37 in NNW 5 mph 11 mph 91% 0.00 in 0 W/m2
20:50 43.2 °F 40.7 °F 30.37 in SSE 2 mph 10 mph 91% 0.00 in 0 W/m2
21:00 43 °F 40.5 °F 30.37 in NNW 1 mph 8 mph 91% 0.00 in 0 W/m2
21:10 42.1 °F 39.6 °F 30.38 in SSE 1 mph 6 mph 91% 0.00 in 0 W/m2
21:20 41.7 °F 39.3 °F 30.37 in East 1 mph 4 mph 91% 0.00 in 0 W/m2
21:30 41.2 °F 38.8 °F 30.37 in East 2 mph 4 mph 91% 0.00 in 0 W/m2
21:40 40.5 °F 38 °F 30.38 in ESE 3 mph 5 mph 91% 0.00 in 0 W/m2
21:50 39.7 °F 37.9 °F 30.38 in ENE 3 mph 6 mph 93% 0.00 in 0 W/m2
22:00 39.2 °F 37.3 °F 30.38 in ESE 3 mph 6 mph 93% 0.00 in 0 W/m2
22:10 38.7 °F 37.1 °F 30.38 in SSE 2 mph 7 mph 94% 0.00 in 0 W/m2
22:20 38.3 °F 36.7 °F 30.38 in East 3 mph 7 mph 94% 0.00 in 0 W/m2
22:30 38.1 °F 36.8 °F 30.38 in SSE 2 mph 6 mph 95% 0.00 in 0 W/m2
22:40 37.8 °F 36.5 °F 30.38 in Calm   6 mph 95% 0.00 in 0 W/m2
22:50 37.4 °F 36.4 °F 30.39 in SE 1 mph 5 mph 96% 0.00 in 0 W/m2
23:00 37.2 °F 36.2 °F 30.39 in East 3 mph 6 mph 96% 0.00 in 0 W/m2
23:10 37 °F 36 °F 30.39 in ENE 2 mph 5 mph 96% 0.00 in 0 W/m2
23:20 36.9 °F 35.8 °F 30.39 in ESE 1 mph 5 mph 96% 0.00 in 0 W/m2
23:30 36.7 °F 35.6 °F 30.39 in ESE 1 mph 4 mph 96% 0.00 in 0 W/m2
Knjazevac, Serbia
Compliments of Weather Underground - 2 mb